sensor_id;sensor_type;location;lat;lon;timestamp;pressure;altitude;pressure_sealevel;temperature;humidity
70930;BME280;58588;48.102;19.682;2022-12-10T00:00:27;97871.31;;;4.87;100.00
70930;BME280;58588;48.102;19.682;2022-12-10T00:03:31;97870.09;;;4.90;100.00
70930;BME280;58588;48.102;19.682;2022-12-10T00:06:35;97862.47;;;4.87;100.00
70930;BME280;58588;48.102;19.682;2022-12-10T00:09:38;97867.47;;;4.96;100.00
70930;BME280;58588;48.102;19.682;2022-12-10T00:12:40;97860.56;;;5.02;100.00
70930;BME280;58588;48.102;19.682;2022-12-10T00:15:42;97863.94;;;4.89;100.00
70930;BME280;58588;48.102;19.682;2022-12-10T00:18:46;97874.16;;;4.86;100.00
70930;BME280;58588;48.102;19.682;2022-12-10T00:21:48;97884.59;;;5.02;100.00
70930;BME280;58588;48.102;19.682;2022-12-10T00:24:50;97900.69;;;4.87;100.00
70930;BME280;58588;48.102;19.682;2022-12-10T00:27:52;97910.34;;;4.88;100.00
70930;BME280;58588;48.102;19.682;2022-12-10T00:30:54;97913.81;;;4.89;100.00
70930;BME280;58588;48.102;19.682;2022-12-10T00:33:59;97900.34;;;4.97;100.00
70930;BME280;58588;48.102;19.682;2022-12-10T00:37:01;97896.16;;;4.88;100.00
70930;BME280;58588;48.102;19.682;2022-12-10T00:40:04;97893.50;;;4.88;100.00
70930;BME280;58588;48.102;19.682;2022-12-10T00:43:06;97906.84;;;4.88;100.00
70930;BME280;58588;48.102;19.682;2022-12-10T00:46:09;97909.50;;;4.88;100.00
70930;BME280;58588;48.102;19.682;2022-12-10T00:49:13;97913.44;;;4.92;100.00
70930;BME280;58588;48.102;19.682;2022-12-10T00:52:15;97908.81;;;5.00;100.00
70930;BME280;58588;48.102;19.682;2022-12-10T00:55:17;97919.09;;;5.03;100.00
70930;BME280;58588;48.102;19.682;2022-12-10T00:58:19;97927.13;;;5.03;100.00
70930;BME280;58588;48.102;19.682;2022-12-10T01:01:24;97938.88;;;5.09;100.00
70930;BME280;58588;48.102;19.682;2022-12-10T01:04:27;97937.38;;;5.00;100.00
70930;BME280;58588;48.102;19.682;2022-12-10T01:07:29;97925.78;;;4.93;100.00
70930;BME280;58588;48.102;19.682;2022-12-10T01:10:31;97923.13;;;4.93;100.00
70930;BME280;58588;48.102;19.682;2022-12-10T01:13:33;97916.50;;;4.89;100.00
70930;BME280;58588;48.102;19.682;2022-12-10T01:16:35;97917.94;;;4.91;100.00
70930;BME280;58588;48.102;19.682;2022-12-10T01:19:39;97914.09;;;4.94;100.00
70930;BME280;58588;48.102;19.682;2022-12-10T01:22:41;97921.72;;;4.97;100.00
70930;BME280;58588;48.102;19.682;2022-12-10T01:25:43;97927.97;;;5.04;100.00
70930;BME280;58588;48.102;19.682;2022-12-10T01:28:45;97924.34;;;5.12;100.00
70930;BME280;58588;48.102;19.682;2022-12-10T01:31:50;97922.03;;;5.08;100.00
70930;BME280;58588;48.102;19.682;2022-12-10T01:34:53;97929.94;;;5.17;100.00
70930;BME280;58588;48.102;19.682;2022-12-10T01:37:55;97931.97;;;5.15;100.00
70930;BME280;58588;48.102;19.682;2022-12-10T01:40:58;97927.84;;;5.12;100.00
70930;BME280;58588;48.102;19.682;2022-12-10T01:44:02;97922.88;;;5.09;100.00
70930;BME280;58588;48.102;19.682;2022-12-10T01:47:04;97916.34;;;5.12;100.00
70930;BME280;58588;48.102;19.682;2022-12-10T01:50:08;97895.16;;;5.10;100.00
70930;BME280;58588;48.102;19.682;2022-12-10T01:53:11;97909.16;;;5.12;100.00
70930;BME280;58588;48.102;19.682;2022-12-10T01:56:15;97919.97;;;5.04;100.00
70930;BME280;58588;48.102;19.682;2022-12-10T01:59:17;97916.53;;;5.10;100.00
70930;BME280;58588;48.102;19.682;2022-12-10T02:02:27;97916.44;;;5.03;100.00
70930;BME280;58588;48.102;19.682;2022-12-10T02:05:36;97911.50;;;5.00;100.00
70930;BME280;58588;48.102;19.682;2022-12-10T02:08:44;97906.34;;;4.99;100.00
70930;BME280;58588;48.102;19.682;2022-12-10T02:11:55;97920.94;;;5.03;100.00
70930;BME280;58588;48.102;19.682;2022-12-10T02:15:04;97918.59;;;5.15;100.00
70930;BME280;58588;48.102;19.682;2022-12-10T02:18:09;97920.66;;;5.13;100.00
70930;BME280;58588;48.102;19.682;2022-12-10T02:21:17;97909.41;;;5.17;100.00
70930;BME280;58588;48.102;19.682;2022-12-10T02:24:23;97916.41;;;5.18;100.00
70930;BME280;58588;48.102;19.682;2022-12-10T02:27:31;97911.81;;;5.12;100.00
70930;BME280;58588;48.102;19.682;2022-12-10T02:30:38;97914.78;;;5.02;100.00
70930;BME280;58588;48.102;19.682;2022-12-10T02:33:44;97910.28;;;5.03;100.00
70930;BME280;58588;48.102;19.682;2022-12-10T02:36:51;97911.28;;;5.02;100.00
70930;BME280;58588;48.102;19.682;2022-12-10T02:39:56;97915.44;;;5.04;100.00
70930;BME280;58588;48.102;19.682;2022-12-10T02:43:00;97916.97;;;4.92;100.00
70930;BME280;58588;48.102;19.682;2022-12-10T02:46:04;97906.78;;;5.02;100.00
70930;BME280;58588;48.102;19.682;2022-12-10T02:49:08;97909.50;;;5.09;100.00
70930;BME280;58588;48.102;19.682;2022-12-10T02:52:14;97924.22;;;5.20;100.00
70930;BME280;58588;48.102;19.682;2022-12-10T02:55:17;97935.28;;;5.17;100.00
70930;BME280;58588;48.102;19.682;2022-12-10T02:58:24;97941.63;;;5.16;100.00
70930;BME280;58588;48.102;19.682;2022-12-10T03:01:38;97938.22;;;5.22;100.00
70930;BME280;58588;48.102;19.682;2022-12-10T03:04:51;97953.16;;;5.16;100.00
70930;BME280;58588;48.102;19.682;2022-12-10T03:07:57;97948.06;;;5.21;100.00
70930;BME280;58588;48.102;19.682;2022-12-10T03:11:07;97956.19;;;5.13;100.00
70930;BME280;58588;48.102;19.682;2022-12-10T03:14:13;97952.38;;;5.01;100.00
70930;BME280;58588;48.102;19.682;2022-12-10T03:17:19;97951.66;;;4.92;100.00
70930;BME280;58588;48.102;19.682;2022-12-10T03:20:23;97956.06;;;5.00;100.00
70930;BME280;58588;48.102;19.682;2022-12-10T03:23:27;97955.03;;;5.01;100.00
70930;BME280;58588;48.102;19.682;2022-12-10T03:26:31;97946.97;;;4.94;100.00
70930;BME280;58588;48.102;19.682;2022-12-10T03:29:35;97954.28;;;5.07;100.00
70930;BME280;58588;48.102;19.682;2022-12-10T03:32:40;97957.03;;;5.14;100.00
70930;BME280;58588;48.102;19.682;2022-12-10T03:35:42;97959.34;;;5.17;100.00
70930;BME280;58588;48.102;19.682;2022-12-10T03:38:46;97952.31;;;5.16;100.00
70930;BME280;58588;48.102;19.682;2022-12-10T03:41:48;97941.13;;;5.05;100.00
70930;BME280;58588;48.102;19.682;2022-12-10T03:44:51;97957.84;;;5.14;100.00
70930;BME280;58588;48.102;19.682;2022-12-10T03:47:54;97957.75;;;5.22;100.00
70930;BME280;58588;48.102;19.682;2022-12-10T03:50:56;97950.16;;;5.26;100.00
70930;BME280;58588;48.102;19.682;2022-12-10T03:53:58;97947.63;;;5.18;100.00
70930;BME280;58588;48.102;19.682;2022-12-10T03:57:00;97954.75;;;5.10;100.00
70930;BME280;58588;48.102;19.682;2022-12-10T04:00:03;97969.16;;;4.95;100.00
70930;BME280;58588;48.102;19.682;2022-12-10T04:03:08;97953.00;;;5.03;100.00
70930;BME280;58588;48.102;19.682;2022-12-10T04:06:14;97955.56;;;5.11;100.00
70930;BME280;58588;48.102;19.682;2022-12-10T04:09:16;97955.84;;;5.16;100.00
70930;BME280;58588;48.102;19.682;2022-12-10T04:12:18;97962.75;;;5.10;100.00
70930;BME280;58588;48.102;19.682;2022-12-10T04:15:20;97963.09;;;5.22;100.00
70930;BME280;58588;48.102;19.682;2022-12-10T04:18:41;97966.00;;;5.27;100.00
70930;BME280;58588;48.102;19.682;2022-12-10T04:21:44;97972.81;;;5.30;100.00
70930;BME280;58588;48.102;19.682;2022-12-10T04:25:04;97972.63;;;5.31;100.00
70930;BME280;58588;48.102;19.682;2022-12-10T04:28:23;97974.00;;;5.27;100.00
70930;BME280;58588;48.102;19.682;2022-12-10T04:31:25;97981.19;;;5.05;100.00
70930;BME280;58588;48.102;19.682;2022-12-10T04:34:28;97992.53;;;4.93;100.00
70930;BME280;58588;48.102;19.682;2022-12-10T04:37:30;97981.03;;;4.92;100.00
70930;BME280;58588;48.102;19.682;2022-12-10T04:40:32;97984.34;;;4.94;100.00
70930;BME280;58588;48.102;19.682;2022-12-10T04:43:34;97983.78;;;4.99;100.00
70930;BME280;58588;48.102;19.682;2022-12-10T04:46:36;97991.63;;;4.86;100.00
70930;BME280;58588;48.102;19.682;2022-12-10T04:49:40;97993.09;;;4.88;100.00
70930;BME280;58588;48.102;19.682;2022-12-10T04:52:42;98005.97;;;4.99;100.00
70930;BME280;58588;48.102;19.682;2022-12-10T04:55:44;97991.34;;;4.95;100.00
70930;BME280;58588;48.102;19.682;2022-12-10T04:58:46;98002.00;;;5.10;100.00
70930;BME280;58588;48.102;19.682;2022-12-10T05:01:48;98002.91;;;5.17;100.00
70930;BME280;58588;48.102;19.682;2022-12-10T05:04:52;98004.19;;;5.06;100.00
70930;BME280;58588;48.102;19.682;2022-12-10T05:07:54;98011.34;;;5.21;100.00
70930;BME280;58588;48.102;19.682;2022-12-10T05:10:56;97995.50;;;4.98;100.00
70930;BME280;58588;48.102;19.682;2022-12-10T05:14:01;97999.81;;;4.99;100.00
70930;BME280;58588;48.102;19.682;2022-12-10T05:17:03;98005.09;;;5.14;100.00
70930;BME280;58588;48.102;19.682;2022-12-10T05:20:08;98003.53;;;5.19;100.00
70930;BME280;58588;48.102;19.682;2022-12-10T05:23:10;98000.25;;;5.02;100.00
70930;BME280;58588;48.102;19.682;2022-12-10T05:26:29;98005.84;;;5.07;100.00
70930;BME280;58588;48.102;19.682;2022-12-10T05:29:31;98001.72;;;5.05;100.00
70930;BME280;58588;48.102;19.682;2022-12-10T05:32:34;98006.59;;;5.01;100.00
70930;BME280;58588;48.102;19.682;2022-12-10T05:35:37;98019.53;;;4.98;100.00
70930;BME280;58588;48.102;19.682;2022-12-10T05:38:40;98027.41;;;5.06;100.00
70930;BME280;58588;48.102;19.682;2022-12-10T05:41:42;98029.53;;;5.10;100.00
70930;BME280;58588;48.102;19.682;2022-12-10T05:44:45;98035.31;;;5.14;100.00
70930;BME280;58588;48.102;19.682;2022-12-10T05:47:47;98032.91;;;5.19;100.00
70930;BME280;58588;48.102;19.682;2022-12-10T05:50:51;98030.91;;;5.06;100.00
70930;BME280;58588;48.102;19.682;2022-12-10T05:53:53;98029.88;;;5.07;100.00
70930;BME280;58588;48.102;19.682;2022-12-10T05:56:55;98030.16;;;5.13;100.00
70930;BME280;58588;48.102;19.682;2022-12-10T05:59:57;98026.66;;;5.12;100.00
70930;BME280;58588;48.102;19.682;2022-12-10T06:02:59;98028.44;;;5.05;100.00
70930;BME280;58588;48.102;19.682;2022-12-10T06:06:03;98031.94;;;5.05;100.00
70930;BME280;58588;48.102;19.682;2022-12-10T06:09:07;98048.13;;;5.19;100.00
70930;BME280;58588;48.102;19.682;2022-12-10T06:12:12;98047.16;;;5.26;100.00
70930;BME280;58588;48.102;19.682;2022-12-10T06:15:14;98051.66;;;5.04;100.00
70930;BME280;58588;48.102;19.682;2022-12-10T06:18:16;98041.31;;;5.01;100.00
70930;BME280;58588;48.102;19.682;2022-12-10T06:21:20;98048.78;;;5.06;100.00
70930;BME280;58588;48.102;19.682;2022-12-10T06:24:22;98054.75;;;5.08;100.00
70930;BME280;58588;48.102;19.682;2022-12-10T06:27:24;98063.03;;;5.28;100.00
70930;BME280;58588;48.102;19.682;2022-12-10T06:30:26;98060.00;;;5.16;100.00
70930;BME280;58588;48.102;19.682;2022-12-10T06:33:28;98063.47;;;5.31;100.00
70930;BME280;58588;48.102;19.682;2022-12-10T06:36:31;98058.69;;;5.27;100.00
70930;BME280;58588;48.102;19.682;2022-12-10T06:39:33;98064.09;;;5.33;100.00
70930;BME280;58588;48.102;19.682;2022-12-10T06:42:35;98075.81;;;5.32;100.00
70930;BME280;58588;48.102;19.682;2022-12-10T06:45:38;98065.13;;;5.32;100.00
70930;BME280;58588;48.102;19.682;2022-12-10T06:48:40;98061.41;;;5.33;100.00
70930;BME280;58588;48.102;19.682;2022-12-10T06:51:44;98065.31;;;5.31;100.00
70930;BME280;58588;48.102;19.682;2022-12-10T06:54:45;98081.47;;;5.23;100.00
70930;BME280;58588;48.102;19.682;2022-12-10T06:57:50;98081.81;;;5.20;100.00
70930;BME280;58588;48.102;19.682;2022-12-10T07:00:52;98084.59;;;5.12;100.00
70930;BME280;58588;48.102;19.682;2022-12-10T07:03:56;98085.84;;;5.30;100.00
70930;BME280;58588;48.102;19.682;2022-12-10T07:06:59;98085.50;;;5.19;100.00
70930;BME280;58588;48.102;19.682;2022-12-10T07:10:03;98092.88;;;5.17;100.00
70930;BME280;58588;48.102;19.682;2022-12-10T07:13:05;98089.28;;;5.24;100.00
70930;BME280;58588;48.102;19.682;2022-12-10T07:16:12;98096.75;;;5.29;100.00
70930;BME280;58588;48.102;19.682;2022-12-10T07:19:14;98087.25;;;5.26;100.00
70930;BME280;58588;48.102;19.682;2022-12-10T07:22:17;98099.66;;;5.49;100.00
70930;BME280;58588;48.102;19.682;2022-12-10T07:25:20;98096.06;;;5.42;100.00
70930;BME280;58588;48.102;19.682;2022-12-10T07:28:22;98103.81;;;5.36;100.00
70930;BME280;58588;48.102;19.682;2022-12-10T07:31:23;98101.50;;;5.33;100.00
70930;BME280;58588;48.102;19.682;2022-12-10T07:34:25;98101.41;;;5.42;100.00
70930;BME280;58588;48.102;19.682;2022-12-10T07:37:29;98097.66;;;5.36;100.00
70930;BME280;58588;48.102;19.682;2022-12-10T07:40:31;98103.09;;;5.28;100.00
70930;BME280;58588;48.102;19.682;2022-12-10T07:43:33;98107.22;;;5.30;100.00
70930;BME280;58588;48.102;19.682;2022-12-10T07:46:35;98111.44;;;5.40;100.00
70930;BME280;58588;48.102;19.682;2022-12-10T07:49:37;98103.81;;;5.36;100.00
70930;BME280;58588;48.102;19.682;2022-12-10T07:52:41;98104.97;;;5.49;100.00
70930;BME280;58588;48.102;19.682;2022-12-10T07:55:43;98086.97;;;5.36;100.00
70930;BME280;58588;48.102;19.682;2022-12-10T07:58:45;98090.53;;;5.43;100.00
70930;BME280;58588;48.102;19.682;2022-12-10T08:01:47;98075.53;;;5.42;100.00
70930;BME280;58588;48.102;19.682;2022-12-10T08:04:49;98057.09;;;5.32;100.00
70930;BME280;58588;48.102;19.682;2022-12-10T08:07:53;98058.53;;;5.50;100.00
70930;BME280;58588;48.102;19.682;2022-12-10T08:10:55;98070.13;;;5.57;100.00
70930;BME280;58588;48.102;19.682;2022-12-10T08:13:57;98058.50;;;5.64;100.00
70930;BME280;58588;48.102;19.682;2022-12-10T08:16:59;98049.41;;;5.59;100.00
70930;BME280;58588;48.102;19.682;2022-12-10T08:20:01;98054.03;;;5.72;100.00
70930;BME280;58588;48.102;19.682;2022-12-10T08:23:04;98054.25;;;5.70;100.00
70930;BME280;58588;48.102;19.682;2022-12-10T08:26:07;98055.88;;;5.71;100.00
70930;BME280;58588;48.102;19.682;2022-12-10T08:29:09;98078.03;;;5.86;100.00
70930;BME280;58588;48.102;19.682;2022-12-10T08:32:11;98076.47;;;5.92;100.00
70930;BME280;58588;48.102;19.682;2022-12-10T08:35:13;98084.22;;;5.87;100.00
70930;BME280;58588;48.102;19.682;2022-12-10T08:38:17;98089.38;;;5.88;100.00
70930;BME280;58588;48.102;19.682;2022-12-10T08:41:20;98088.81;;;5.93;100.00
70930;BME280;58588;48.102;19.682;2022-12-10T08:44:22;98079.41;;;5.97;100.00
70930;BME280;58588;48.102;19.682;2022-12-10T08:47:24;98073.03;;;5.98;100.00
70930;BME280;58588;48.102;19.682;2022-12-10T08:50:26;98067.25;;;5.95;100.00
70930;BME280;58588;48.102;19.682;2022-12-10T08:53:29;98060.13;;;6.02;100.00
70930;BME280;58588;48.102;19.682;2022-12-10T08:56:31;98064.28;;;6.11;100.00
70930;BME280;58588;48.102;19.682;2022-12-10T08:59:33;98067.22;;;6.16;100.00
70930;BME280;58588;48.102;19.682;2022-12-10T09:02:35;98066.84;;;5.98;100.00
70930;BME280;58588;48.102;19.682;2022-12-10T09:05:37;98077.31;;;5.93;100.00
70930;BME280;58588;48.102;19.682;2022-12-10T09:08:41;98080.41;;;6.17;100.00
70930;BME280;58588;48.102;19.682;2022-12-10T09:11:43;98071.28;;;6.33;100.00
70930;BME280;58588;48.102;19.682;2022-12-10T09:14:46;98077.25;;;6.35;100.00
70930;BME280;58588;48.102;19.682;2022-12-10T09:17:48;98072.34;;;6.39;100.00
70930;BME280;58588;48.102;19.682;2022-12-10T09:20:50;98073.81;;;6.13;100.00
70930;BME280;58588;48.102;19.682;2022-12-10T09:23:53;98072.94;;;6.34;100.00
70930;BME280;58588;48.102;19.682;2022-12-10T09:26:55;98056.53;;;6.44;100.00
70930;BME280;58588;48.102;19.682;2022-12-10T09:29:57;98057.66;;;6.56;100.00
70930;BME280;58588;48.102;19.682;2022-12-10T09:32:59;98059.00;;;6.74;100.00
70930;BME280;58588;48.102;19.682;2022-12-10T09:36:02;98064.59;;;6.79;100.00
70930;BME280;58588;48.102;19.682;2022-12-10T09:39:06;98076.81;;;6.88;100.00
70930;BME280;58588;48.102;19.682;2022-12-10T09:42:18;98076.75;;;6.81;100.00
70930;BME280;58588;48.102;19.682;2022-12-10T09:45:29;98055.78;;;6.85;100.00
70930;BME280;58588;48.102;19.682;2022-12-10T09:48:38;98069.34;;;6.83;100.00
70930;BME280;58588;48.102;19.682;2022-12-10T09:51:48;98073.63;;;6.78;100.00
70930;BME280;58588;48.102;19.682;2022-12-10T09:54:55;98062.06;;;7.05;100.00
70930;BME280;58588;48.102;19.682;2022-12-10T09:57:59;98061.78;;;6.93;100.00
70930;BME280;58588;48.102;19.682;2022-12-10T10:01:05;98052.75;;;7.01;100.00
70930;BME280;58588;48.102;19.682;2022-12-10T10:04:08;98051.31;;;6.98;100.00
70930;BME280;58588;48.102;19.682;2022-12-10T10:07:17;98057.16;;;7.15;100.00
70930;BME280;58588;48.102;19.682;2022-12-10T10:10:27;98051.34;;;7.05;100.00
70930;BME280;58588;48.102;19.682;2022-12-10T10:13:34;98049.53;;;7.19;100.00
70930;BME280;58588;48.102;19.682;2022-12-10T10:16:42;98038.38;;;7.09;100.00
70930;BME280;58588;48.102;19.682;2022-12-10T10:19:46;98035.22;;;6.92;100.00
70930;BME280;58588;48.102;19.682;2022-12-10T10:22:50;98034.63;;;6.96;100.00
70930;BME280;58588;48.102;19.682;2022-12-10T10:25:54;98022.88;;;6.97;100.00
70930;BME280;58588;48.102;19.682;2022-12-10T10:28:59;98033.41;;;7.06;100.00
70930;BME280;58588;48.102;19.682;2022-12-10T10:32:14;98037.69;;;6.93;100.00
70930;BME280;58588;48.102;19.682;2022-12-10T10:35:23;98031.25;;;6.88;100.00
70930;BME280;58588;48.102;19.682;2022-12-10T10:38:27;98040.34;;;6.87;100.00
70930;BME280;58588;48.102;19.682;2022-12-10T10:41:35;98033.34;;;6.92;100.00
70930;BME280;58588;48.102;19.682;2022-12-10T10:44:41;98029.03;;;6.91;100.00
70930;BME280;58588;48.102;19.682;2022-12-10T10:47:43;98013.81;;;6.98;100.00
70930;BME280;58588;48.102;19.682;2022-12-10T10:50:47;98018.13;;;7.00;100.00
70930;BME280;58588;48.102;19.682;2022-12-10T10:53:50;98010.69;;;6.95;100.00
70930;BME280;58588;48.102;19.682;2022-12-10T10:56:54;98018.13;;;7.00;100.00
70930;BME280;58588;48.102;19.682;2022-12-10T11:00:01;98018.53;;;6.96;100.00
70930;BME280;58588;48.102;19.682;2022-12-10T11:03:06;98025.31;;;6.92;100.00
70930;BME280;58588;48.102;19.682;2022-12-10T11:06:13;98024.06;;;6.88;100.00
70930;BME280;58588;48.102;19.682;2022-12-10T11:09:23;98022.84;;;6.91;100.00
70930;BME280;58588;48.102;19.682;2022-12-10T11:12:46;98014.59;;;6.92;100.00
70930;BME280;58588;48.102;19.682;2022-12-10T11:15:56;98013.81;;;6.98;100.00
70930;BME280;58588;48.102;19.682;2022-12-10T11:18:59;98008.81;;;6.89;100.00
70930;BME280;58588;48.102;19.682;2022-12-10T11:22:20;97997.91;;;6.90;100.00
70930;BME280;58588;48.102;19.682;2022-12-10T11:25:33;97999.13;;;6.88;100.00
70930;BME280;58588;48.102;19.682;2022-12-10T11:28:50;97997.91;;;6.90;100.00
70930;BME280;58588;48.102;19.682;2022-12-10T11:32:13;98004.72;;;6.93;100.00
70930;BME280;58588;48.102;19.682;2022-12-10T11:35:21;98005.97;;;6.97;100.00
70930;BME280;58588;48.102;19.682;2022-12-10T11:38:28;97998.75;;;6.97;100.00
70930;BME280;58588;48.102;19.682;2022-12-10T11:41:35;98004.09;;;6.91;100.00
70930;BME280;58588;48.102;19.682;2022-12-10T11:44:45;98010.06;;;6.93;100.00
70930;BME280;58588;48.102;19.682;2022-12-10T11:47:59;98007.00;;;6.96;100.00
70930;BME280;58588;48.102;19.682;2022-12-10T11:51:07;98013.22;;;7.03;100.00
70930;BME280;58588;48.102;19.682;2022-12-10T11:54:19;98008.03;;;7.02;100.00
70930;BME280;58588;48.102;19.682;2022-12-10T11:57:30;98001.22;;;6.92;100.00
70930;BME280;58588;48.102;19.682;2022-12-10T12:00:42;97993.25;;;6.71;100.00
70930;BME280;58588;48.102;19.682;2022-12-10T12:04:06;97995.16;;;6.77;100.00
70930;BME280;58588;48.102;19.682;2022-12-10T12:07:25;97993.50;;;6.76;100.00
70930;BME280;58588;48.102;19.682;2022-12-10T12:10:47;97990.22;;;6.74;100.00
70930;BME280;58588;48.102;19.682;2022-12-10T12:13:56;97977.66;;;6.81;100.00
70930;BME280;58588;48.102;19.682;2022-12-10T12:17:04;97973.66;;;6.64;100.00
70930;BME280;58588;48.102;19.682;2022-12-10T12:20:16;97963.81;;;6.71;100.00
70930;BME280;58588;48.102;19.682;2022-12-10T12:23:24;97958.41;;;6.58;100.00
70930;BME280;58588;48.102;19.682;2022-12-10T12:26:30;97957.59;;;6.64;100.00
70930;BME280;58588;48.102;19.682;2022-12-10T12:29:35;97954.09;;;6.63;100.00
70930;BME280;58588;48.102;19.682;2022-12-10T12:32:51;97939.88;;;6.63;100.00
70930;BME280;58588;48.102;19.682;2022-12-10T12:35:59;97945.59;;;6.53;100.00
70930;BME280;58588;48.102;19.682;2022-12-10T12:39:11;97942.31;;;6.51;100.00
70930;BME280;58588;48.102;19.682;2022-12-10T12:42:23;97940.19;;;6.40;100.00
70930;BME280;58588;48.102;19.682;2022-12-10T12:45:34;97936.66;;;6.33;100.00
70930;BME280;58588;48.102;19.682;2022-12-10T12:48:44;97939.56;;;6.38;100.00
70930;BME280;58588;48.102;19.682;2022-12-10T12:51:53;97943.00;;;6.25;100.00
70930;BME280;58588;48.102;19.682;2022-12-10T12:55:00;97945.84;;;6.24;100.00
70930;BME280;58588;48.102;19.682;2022-12-10T12:58:17;97945.50;;;6.33;100.00
70930;BME280;58588;48.102;19.682;2022-12-10T13:01:30;97925.50;;;6.29;100.00
70930;BME280;58588;48.102;19.682;2022-12-10T13:04:38;97930.84;;;6.29;100.00
70930;BME280;58588;48.102;19.682;2022-12-10T13:07:40;97925.13;;;6.32;100.00
70930;BME280;58588;48.102;19.682;2022-12-10T13:10:50;97927.56;;;6.27;100.00
70930;BME280;58588;48.102;19.682;2022-12-10T13:14:12;97937.22;;;6.28;100.00
70930;BME280;58588;48.102;19.682;2022-12-10T13:17:27;97929.66;;;6.32;100.00
70930;BME280;58588;48.102;19.682;2022-12-10T13:20:39;97936.69;;;6.39;100.00
70930;BME280;58588;48.102;19.682;2022-12-10T13:23:48;97942.34;;;6.23;100.00
70930;BME280;58588;48.102;19.682;2022-12-10T13:27:04;97945.44;;;6.20;100.00
70930;BME280;58588;48.102;19.682;2022-12-10T13:30:34;97943.56;;;6.21;100.00
70930;BME280;58588;48.102;19.682;2022-12-10T13:33:48;97947.13;;;6.28;100.00
70930;BME280;58588;48.102;19.682;2022-12-10T13:37:29;97948.38;;;6.32;100.00
70930;BME280;58588;48.102;19.682;2022-12-10T13:40:41;97930.31;;;6.40;100.00
70930;BME280;58588;48.102;19.682;2022-12-10T13:44:01;97936.69;;;6.39;100.00
70930;BME280;58588;48.102;19.682;2022-12-10T13:47:27;97930.13;;;6.42;100.00
70930;BME280;58588;48.102;19.682;2022-12-10T13:50:35;97942.88;;;6.47;100.00
70930;BME280;58588;48.102;19.682;2022-12-10T13:53:52;97928.25;;;6.36;100.00
70930;BME280;58588;48.102;19.682;2022-12-10T13:57:04;97939.00;;;6.49;100.00
70930;BME280;58588;48.102;19.682;2022-12-10T14:00:15;97942.09;;;6.53;100.00
70930;BME280;58588;48.102;19.682;2022-12-10T14:03:39;97938.00;;;6.57;100.00
70930;BME280;58588;48.102;19.682;2022-12-10T14:06:44;97934.31;;;6.58;100.00
70930;BME280;58588;48.102;19.682;2022-12-10T14:09:50;97934.09;;;6.59;100.00
70930;BME280;58588;48.102;19.682;2022-12-10T14:12:54;97933.91;;;6.61;100.00
70930;BME280;58588;48.102;19.682;2022-12-10T14:15:58;97941.34;;;6.65;100.00
70930;BME280;58588;48.102;19.682;2022-12-10T14:19:05;97938.88;;;6.64;100.00
70930;BME280;58588;48.102;19.682;2022-12-10T14:22:08;97936.38;;;6.56;100.00
70930;BME280;58588;48.102;19.682;2022-12-10T14:25:18;97932.88;;;6.62;100.00
70930;BME280;58588;48.102;19.682;2022-12-10T14:28:21;97940.06;;;6.55;100.00
70930;BME280;58588;48.102;19.682;2022-12-10T14:31:26;97943.09;;;6.45;100.00
70930;BME280;58588;48.102;19.682;2022-12-10T14:34:30;97942.44;;;6.36;100.00
70930;BME280;58588;48.102;19.682;2022-12-10T14:37:36;97947.56;;;6.31;100.00
70930;BME280;58588;48.102;19.682;2022-12-10T14:40:41;97941.00;;;6.40;100.00
70930;BME280;58588;48.102;19.682;2022-12-10T14:43:44;97935.00;;;6.32;100.00
70930;BME280;58588;48.102;19.682;2022-12-10T14:46:47;97936.28;;;6.36;100.00
70930;BME280;58588;48.102;19.682;2022-12-10T14:49:52;97941.25;;;6.46;100.00
70930;BME280;58588;48.102;19.682;2022-12-10T14:52:54;97937.75;;;6.45;100.00
70930;BME280;58588;48.102;19.682;2022-12-10T14:56:00;97937.53;;;6.47;100.00
70930;BME280;58588;48.102;19.682;2022-12-10T14:59:08;97930.91;;;6.36;100.00
70930;BME280;58588;48.102;19.682;2022-12-10T15:02:18;97939.94;;;6.35;100.00
70930;BME280;58588;48.102;19.682;2022-12-10T15:05:22;97928.66;;;6.39;100.00
70930;BME280;58588;48.102;19.682;2022-12-10T15:08:26;97939.19;;;6.48;100.00
70930;BME280;58588;48.102;19.682;2022-12-10T15:11:30;97937.13;;;6.43;100.00
70930;BME280;58588;48.102;19.682;2022-12-10T15:14:33;97937.94;;;6.43;100.00
70930;BME280;58588;48.102;19.682;2022-12-10T15:17:39;97935.28;;;6.43;100.00
70930;BME280;58588;48.102;19.682;2022-12-10T15:20:46;97936.72;;;6.46;100.00
70930;BME280;58588;48.102;19.682;2022-12-10T15:23:50;97947.91;;;6.56;100.00
70930;BME280;58588;48.102;19.682;2022-12-10T15:26:53;97934.44;;;6.43;100.00
70930;BME280;58588;48.102;19.682;2022-12-10T15:29:55;97938.59;;;6.52;100.00
70930;BME280;58588;48.102;19.682;2022-12-10T15:32:57;97928.13;;;6.57;100.00
70930;BME280;58588;48.102;19.682;2022-12-10T15:36:00;97937.66;;;6.66;100.00
70930;BME280;58588;48.102;19.682;2022-12-10T15:39:04;97931.66;;;6.64;100.00
70930;BME280;58588;48.102;19.682;2022-12-10T15:42:28;97926.50;;;6.63;100.00
70930;BME280;58588;48.102;19.682;2022-12-10T15:45:38;97923.81;;;6.63;100.00
70930;BME280;58588;48.102;19.682;2022-12-10T15:48:40;97923.44;;;6.66;100.00
70930;BME280;58588;48.102;19.682;2022-12-10T15:51:43;97924.03;;;6.61;100.00
70930;BME280;58588;48.102;19.682;2022-12-10T15:54:47;97927.31;;;6.63;100.00
70930;BME280;58588;48.102;19.682;2022-12-10T15:57:50;97928.97;;;6.64;100.00
70930;BME280;58588;48.102;19.682;2022-12-10T16:00:52;97931.41;;;6.59;100.00
70930;BME280;58588;48.102;19.682;2022-12-10T16:03:54;97925.03;;;6.54;100.00
70930;BME280;58588;48.102;19.682;2022-12-10T16:06:56;97923.38;;;6.59;100.00
70930;BME280;58588;48.102;19.682;2022-12-10T16:09:58;97914.34;;;6.54;100.00